Airfield :
LOGIN :

Register | Disclaimer

   EN    FR    IT 

 










Legend :    VFR   Marginal VFR   IFR   Intensive IFR   Very Intensive IFR
Visi :
Ceiling :
>= 8 km
>= 3000ft
5 to 8 km
1000 to 3000 ft
1500m to 5 km
500 to 1000 ft
800 to 1500m
200 to 500 ft
< 800m
< 200 ft
Symbols :   Thunderstorms  Fog  Heavy snow  Heavy precipitations  Wind > 20 kt
SIGMETs :     Misc.  Thunderstorms  Icing  Turbulence  Mountain Waves  Volcanic Ashes






- Airport Elevation : 157 ft
- IATA code : SXF


EDDB - Berlin Schönefeld

CURRENT METAR :
  • 091420Z 32013KT CAVOK 18/05 Q1023 TEMPO 32015G25KT

EXPIRED METARs :
  • 091350Z 33013KT CAVOK 17/05 Q1023 TEMPO 33015G25KT
  • 091320Z 31011G25KT 270V340 CAVOK 18/06 Q1023 TEMPO 31015G25KT
  • 091250Z 32011KT 270V350 CAVOK 17/05 Q1023 TEMPO 31015G25KT
  • 091220Z 31011KT 280V350 CAVOK 17/04 Q1023 TEMPO 31015G25KT
  • 091150Z 30013KT CAVOK 17/04 Q1023 NOSIG

TAF COR TAF EDDB
Valid from the 09 at 12:00 until the 10 at 12:00 UTC


091151Z 0912/1012 32012KT CAVOK
PROB30
TEMPO 0912/0916 32015G25KT
BECMG 0918/0921 VRB03KT
BECMG 1006/1009 30006KT



MET'MAP, your aeronautical weather chart ! - Copyright ORBIFLY December 2007 - Disclaimer

ORBIFLY MET'MAP TEAM :

Programming & Development : Alexandra Zaïnal
Concept & original design : Baudouin d'Aumeries
Assistance for programming : Marc-Olivier Méhu
Technical & hardware support : Manuel Goepfert

Contact : metmap@orbifly.com




SOURCES & CREDITS :

   NOAA